createdAt,value
2019-03-02T00:00:50.201Z,0.00
2019-03-02T00:01:50.250Z,0.00
2019-03-02T00:02:50.307Z,0.00
2019-03-02T00:03:50.331Z,0.00
2019-03-02T00:04:50.410Z,0.00
2019-03-02T00:05:50.451Z,0.00
2019-03-02T00:06:50.482Z,0.00
2019-03-02T00:07:50.531Z,0.00
2019-03-02T00:08:50.604Z,0.00
2019-03-02T00:09:50.612Z,0.00
2019-03-02T00:10:50.656Z,0.00
2019-03-02T00:11:52.945Z,0.00
2019-03-02T00:12:50.758Z,0.00
2019-03-02T00:13:50.784Z,0.00
2019-03-02T00:14:53.890Z,0.00
2019-03-02T00:15:50.901Z,0.00
2019-03-02T00:16:50.943Z,0.00
2019-03-02T00:17:54.112Z,0.00
2019-03-02T00:18:51.029Z,0.00
2019-03-02T00:19:51.072Z,0.00
2019-03-02T00:20:55.424Z,0.00
2019-03-02T00:21:51.182Z,0.00
2019-03-02T00:22:51.228Z,0.00
2019-03-02T00:23:54.304Z,0.00
2019-03-02T00:24:53.920Z,0.00
2019-03-02T00:25:51.386Z,0.00
2019-03-02T00:26:51.405Z,0.00
2019-03-02T00:27:54.110Z,0.00
2019-03-02T00:28:51.525Z,0.00
2019-03-02T00:29:51.557Z,0.00
2019-03-02T00:30:54.823Z,0.00
2019-03-02T00:31:51.645Z,0.00
2019-03-02T00:33:24.892Z,0.00
2019-03-02T00:33:53.753Z,0.00
2019-03-02T00:34:51.747Z,0.00
2019-03-02T00:35:51.826Z,0.00
2019-03-02T00:36:55.210Z,0.00
2019-03-02T00:37:51.899Z,0.00
2019-03-02T00:38:51.959Z,0.00
2019-03-02T00:39:54.579Z,0.00
2019-03-02T00:40:52.090Z,0.00
2019-03-02T00:41:52.104Z,0.00
2019-03-02T00:42:52.839Z,0.00
2019-03-02T00:43:52.229Z,0.00
2019-03-02T00:44:52.241Z,0.00
2019-03-02T00:45:52.286Z,0.00
2019-03-02T00:46:52.362Z,0.00
2019-03-02T00:47:52.353Z,0.00
2019-03-02T00:48:52.388Z,0.00
2019-03-02T00:49:52.445Z,0.00
2019-03-02T00:50:52.520Z,0.00
2019-03-02T00:51:52.600Z,0.00
2019-03-02T00:52:55.602Z,0.00
2019-03-02T00:53:52.644Z,0.00
2019-03-02T00:54:58.139Z,0.00
2019-03-02T00:55:52.747Z,0.00
2019-03-02T00:56:52.787Z,0.00
2019-03-02T00:57:53.650Z,0.00
2019-03-02T00:58:52.895Z,0.00
2019-03-02T00:59:52.930Z,0.00
2019-03-02T01:00:53.707Z,0.00
2019-03-02T01:01:53.045Z,0.00
2019-03-02T01:02:53.069Z,0.00
2019-03-02T01:03:53.108Z,0.00
2019-03-02T01:04:53.190Z,0.00
2019-03-02T01:05:53.236Z,0.00
2019-03-02T01:06:53.245Z,0.00
2019-03-02T01:07:55.946Z,0.00
2019-03-02T01:08:53.376Z,0.00
2019-03-02T01:09:53.375Z,0.00
2019-03-02T01:10:54.740Z,0.00
2019-03-02T01:11:53.523Z,0.00
2019-03-02T01:12:53.510Z,0.00
2019-03-02T01:13:56.599Z,0.00
2019-03-02T01:14:53.600Z,0.00
2019-03-02T01:15:53.650Z,0.00
2019-03-02T01:16:55.177Z,0.00
2019-03-02T01:17:53.754Z,0.00
2019-03-02T01:18:53.797Z,0.00
2019-03-02T01:19:53.964Z,0.00
2019-03-02T01:20:53.895Z,0.00
2019-03-02T01:21:53.945Z,0.00
2019-03-02T01:22:53.981Z,0.00
2019-03-02T01:23:54.040Z,0.00
2019-03-02T01:24:54.055Z,0.00
2019-03-02T01:25:54.126Z,0.00
2019-03-02T01:26:55.696Z,0.00
2019-03-02T01:27:54.192Z,0.00
2019-03-02T01:28:54.271Z,0.00
2019-03-02T01:29:54.733Z,0.00
2019-03-02T01:30:54.338Z,0.00
2019-03-02T01:31:54.399Z,0.00
2019-03-02T01:32:54.483Z,0.00
2019-03-02T01:33:54.484Z,0.00
2019-03-02T01:34:54.543Z,0.00
2019-03-02T01:35:56.903Z,0.00
2019-03-02T01:36:54.621Z,0.00
2019-03-02T01:37:54.675Z,0.00
2019-03-02T01:38:54.949Z,0.00
2019-03-02T01:39:54.774Z,0.00
2019-03-02T01:40:54.792Z,0.00
2019-03-02T01:41:54.871Z,0.00
2019-03-02T01:42:54.892Z,0.00
2019-03-02T01:43:54.943Z,0.00
2019-03-02T01:44:54.998Z,0.00
2019-03-02T01:45:55.035Z,0.00
2019-03-02T01:46:55.102Z,0.00
2019-03-02T01:47:55.155Z,0.00
2019-03-02T01:48:55.203Z,0.00
2019-03-02T01:49:55.221Z,0.00
2019-03-02T01:50:55.294Z,0.00
2019-03-02T01:51:58.256Z,0.00
2019-03-02T01:52:55.369Z,0.00
2019-03-02T01:53:55.426Z,0.00
2019-03-02T01:54:55.818Z,0.00
2019-03-02T01:55:55.482Z,0.00
2019-03-02T01:56:55.559Z,0.00
2019-03-02T01:57:55.617Z,0.00
2019-03-02T01:58:55.651Z,0.00
2019-03-02T01:59:55.701Z,0.00
2019-03-02T02:00:55.748Z,0.00
2019-03-02T02:01:56.542Z,0.00
2019-03-02T02:02:55.829Z,0.00
2019-03-02T02:03:55.888Z,0.00
2019-03-02T02:04:57.545Z,0.00
2019-03-02T02:05:55.959Z,0.00
2019-03-02T02:06:56.029Z,0.00
2019-03-02T02:07:56.074Z,0.00
2019-03-02T02:08:56.121Z,0.00
2019-03-02T02:09:56.164Z,0.00
2019-03-02T02:10:56.191Z,0.00
2019-03-02T02:11:56.266Z,0.00
2019-03-02T02:12:56.305Z,0.00
2019-03-02T02:13:56.379Z,0.00
2019-03-02T02:14:56.373Z,0.00
2019-03-02T02:15:56.476Z,0.00
2019-03-02T02:16:56.464Z,0.00
2019-03-02T02:17:56.549Z,0.00
2019-03-02T02:18:59.243Z,0.00
2019-03-02T02:19:56.636Z,0.00
2019-03-02T02:20:56.678Z,0.00
2019-03-02T02:21:58.783Z,0.00
2019-03-02T02:22:56.776Z,0.00
2019-03-02T02:23:56.796Z,0.00
2019-03-02T02:25:00.295Z,0.00
2019-03-02T02:25:56.934Z,0.00
2019-03-02T02:26:56.948Z,0.00
2019-03-02T02:27:57.896Z,0.00
2019-03-02T02:28:57.040Z,0.00
2019-03-02T02:29:57.086Z,0.00
2019-03-02T02:31:01.768Z,0.00
2019-03-02T02:31:57.177Z,0.00
2019-03-02T02:33:03.736Z,0.00
2019-03-02T02:33:57.252Z,0.00
2019-03-02T02:35:01.116Z,0.00
2019-03-02T02:35:57.354Z,0.00
2019-03-02T02:36:58.183Z,0.00
2019-03-02T02:37:57.449Z,0.00
2019-03-02T02:38:57.509Z,0.00
2019-03-02T02:39:57.538Z,0.00
2019-03-02T02:40:57.574Z,0.00
2019-03-02T02:41:59.947Z,0.00
2019-03-02T02:42:57.692Z,0.00
2019-03-02T02:43:58.948Z,0.00
2019-03-02T02:44:57.767Z,0.00
2019-03-02T02:45:57.809Z,0.00
2019-03-02T02:46:57.845Z,0.00
2019-03-02T02:47:57.957Z,0.00
2019-03-02T02:48:57.955Z,0.00
2019-03-02T02:49:57.994Z,0.00
2019-03-02T02:50:58.031Z,0.00
2019-03-02T02:51:58.091Z,0.00
2019-03-02T02:53:06.012Z,0.00
2019-03-02T02:53:58.181Z,0.00
2019-03-02T02:55:02.472Z,0.00
2019-03-02T02:55:58.269Z,0.00
2019-03-02T02:57:00.197Z,0.00
2019-03-02T02:57:58.366Z,0.00
2019-03-02T02:59:01.596Z,0.00
2019-03-02T02:59:58.479Z,0.00
2019-03-02T03:00:58.523Z,0.00
2019-03-02T03:01:58.566Z,0.00
2019-03-02T03:02:58.589Z,0.00
2019-03-02T03:03:59.534Z,0.00
2019-03-02T03:04:58.699Z,0.00
2019-03-02T03:05:58.748Z,0.00
2019-03-02T03:06:58.787Z,0.00
2019-03-02T03:07:58.832Z,0.00
2019-03-02T03:08:58.884Z,0.00
2019-03-02T03:09:58.913Z,0.00
2019-03-02T03:11:01.617Z,0.00
2019-03-02T03:11:59.005Z,0.00
2019-03-02T03:13:02.209Z,0.00
2019-03-02T03:13:59.078Z,0.00
2019-03-02T03:14:59.696Z,0.00
2019-03-02T03:15:59.170Z,0.00
2019-03-02T03:16:59.247Z,0.00
2019-03-02T03:17:59.314Z,0.00
2019-03-02T03:18:59.313Z,0.00
2019-03-02T03:19:59.375Z,0.00
2019-03-02T03:20:59.426Z,0.00
2019-03-02T03:22:02.277Z,0.00
2019-03-02T03:22:59.511Z,0.00
2019-03-02T03:24:03.807Z,0.00
2019-03-02T03:24:59.618Z,0.00
2019-03-02T03:25:59.639Z,0.00
2019-03-02T03:26:59.708Z,0.00
2019-03-02T03:27:59.763Z,0.00
2019-03-02T03:28:59.802Z,0.00
2019-03-02T03:29:59.820Z,0.00
2019-03-02T03:30:59.896Z,0.00
2019-03-02T03:32:07.633Z,0.00
2019-03-02T03:33:00.477Z,0.00
2019-03-02T03:34:00.033Z,0.00
2019-03-02T03:35:00.222Z,0.00
2019-03-02T03:36:00.115Z,0.00
2019-03-02T03:37:00.164Z,0.00
2019-03-02T03:38:00.207Z,0.00
2019-03-02T03:39:02.728Z,0.00
2019-03-02T03:40:00.352Z,0.00
2019-03-02T03:41:05.271Z,0.00
2019-03-02T03:42:00.387Z,0.00
2019-03-02T03:43:03.126Z,0.00
2019-03-02T03:44:00.518Z,0.00
2019-03-02T03:45:04.376Z,0.00
2019-03-02T03:46:00.631Z,0.00
2019-03-02T03:47:01.983Z,0.00
2019-03-02T03:48:00.651Z,0.00
2019-03-02T03:49:00.723Z,0.00
2019-03-02T03:50:00.758Z,0.00
2019-03-02T03:51:00.807Z,0.00
2019-03-02T03:52:04.000Z,0.00
2019-03-02T03:53:00.901Z,0.00
2019-03-02T03:54:01.616Z,0.00
2019-03-02T03:55:00.987Z,0.00
2019-03-02T03:56:04.028Z,0.00
2019-03-02T03:57:01.094Z,0.00
2019-03-02T03:58:02.593Z,0.00
2019-03-02T03:59:01.177Z,0.00
2019-03-02T04:00:01.245Z,0.00
2019-03-02T04:01:01.271Z,0.00
2019-03-02T04:02:01.356Z,0.00
2019-03-02T04:03:01.352Z,0.00
2019-03-02T04:04:01.415Z,0.00
2019-03-02T04:05:07.172Z,0.00
2019-03-02T04:06:01.481Z,0.00
2019-03-02T04:07:06.299Z,0.00
2019-03-02T04:08:01.590Z,0.00
2019-03-02T04:09:03.141Z,0.00
2019-03-02T04:10:01.694Z,0.00
2019-03-02T04:11:04.524Z,0.00
2019-03-02T04:12:01.808Z,0.00
2019-03-02T04:13:05.229Z,0.00
2019-03-02T04:14:01.875Z,0.00
2019-03-02T04:15:03.130Z,0.00
2019-03-02T04:16:01.980Z,0.00
2019-03-02T04:17:02.041Z,0.00
2019-03-02T04:18:02.110Z,0.00
2019-03-02T04:19:02.108Z,0.00
2019-03-02T04:20:02.153Z,0.00
2019-03-02T04:21:02.201Z,0.00
2019-03-02T04:22:06.510Z,0.00
2019-03-02T04:23:02.265Z,0.00
2019-03-02T04:24:03.280Z,0.00
2019-03-02T04:25:02.372Z,0.00
2019-03-02T04:26:02.483Z,0.00
2019-03-02T04:27:02.475Z,0.00
2019-03-02T04:28:02.526Z,0.00
2019-03-02T04:29:09.036Z,0.00
2019-03-02T04:30:02.618Z,0.00
2019-03-02T04:31:04.626Z,0.00
2019-03-02T04:32:02.682Z,0.00
2019-03-02T04:33:06.054Z,0.00
2019-03-02T04:34:02.801Z,0.00
2019-03-02T04:35:02.857Z,0.00
2019-03-02T04:36:09.406Z,0.00
2019-03-02T04:37:02.923Z,0.00
2019-03-02T04:38:03.021Z,0.00
2019-03-02T04:39:03.033Z,0.00
2019-03-02T04:40:03.094Z,0.00
2019-03-02T04:41:04.061Z,0.00
2019-03-02T04:42:03.168Z,0.00
2019-03-02T04:43:03.205Z,0.00
2019-03-02T04:44:03.261Z,0.00
2019-03-02T04:45:04.991Z,0.00
2019-03-02T04:46:03.351Z,0.00
2019-03-02T04:47:03.398Z,0.00
2019-03-02T04:48:04.593Z,0.00
2019-03-02T04:49:03.494Z,0.00
2019-03-02T04:50:03.545Z,0.00
2019-03-02T04:51:03.598Z,0.00
2019-03-02T04:52:03.617Z,0.00
2019-03-02T04:53:03.681Z,0.00
2019-03-02T04:54:03.712Z,0.00
2019-03-02T04:55:03.766Z,0.00
2019-03-02T04:56:03.851Z,0.00
2019-03-02T04:57:03.850Z,0.00
2019-03-02T04:58:03.912Z,0.00
2019-03-02T04:59:03.925Z,0.00
2019-03-02T05:00:03.990Z,0.00
2019-03-02T05:01:06.943Z,0.00
2019-03-02T05:02:04.099Z,0.00
2019-03-02T05:03:04.151Z,0.00
2019-03-02T05:04:04.178Z,0.00
2019-03-02T05:05:04.798Z,0.00
2019-03-02T05:06:04.269Z,0.00
2019-03-02T05:07:04.318Z,0.00
2019-03-02T05:08:05.166Z,0.00
2019-03-02T05:09:04.412Z,0.00
2019-03-02T05:10:04.458Z,0.00
2019-03-02T05:11:04.592Z,0.00
2019-03-02T05:12:04.549Z,0.00
2019-03-02T05:13:04.574Z,0.00
2019-03-02T05:14:05.520Z,0.00
2019-03-02T05:15:04.696Z,0.00
2019-03-02T05:16:04.771Z,0.00
2019-03-02T05:17:07.368Z,0.00
2019-03-02T05:18:04.826Z,0.00
2019-03-02T05:19:04.864Z,0.00
2019-03-02T05:20:06.011Z,0.00
2019-03-02T05:21:04.958Z,0.00
2019-03-02T05:22:05.013Z,0.00
2019-03-02T05:23:05.065Z,0.00
2019-03-02T05:24:08.967Z,0.00
2019-03-02T05:25:05.140Z,0.00
2019-03-02T05:26:05.221Z,0.00
2019-03-02T05:27:05.222Z,0.00
2019-03-02T05:28:07.235Z,0.00
2019-03-02T05:29:05.364Z,0.00
2019-03-02T05:30:05.387Z,0.00
2019-03-02T05:31:06.283Z,0.00
2019-03-02T05:32:05.468Z,0.00
2019-03-02T05:33:05.535Z,0.00
2019-03-02T05:34:05.921Z,0.00
2019-03-02T05:35:05.610Z,0.00
2019-03-02T05:36:05.666Z,0.00
2019-03-02T05:37:05.703Z,0.00
2019-03-02T05:38:05.765Z,0.00
2019-03-02T05:39:05.779Z,0.00
2019-03-02T05:40:05.843Z,0.00
2019-03-02T05:41:05.881Z,0.00
2019-03-02T05:42:05.929Z,0.00
2019-03-02T05:43:05.968Z,0.00
2019-03-02T05:44:06.050Z,0.00
2019-03-02T05:45:06.082Z,0.00
2019-03-02T05:46:06.123Z,0.00
2019-03-02T05:47:06.166Z,0.00
2019-03-02T05:48:06.294Z,0.00
2019-03-02T05:49:06.261Z,0.00
2019-03-02T05:50:06.300Z,0.00
2019-03-02T05:51:06.737Z,0.00
2019-03-02T05:52:06.382Z,0.00
2019-03-02T05:53:06.445Z,0.00
2019-03-02T05:54:07.586Z,0.00
2019-03-02T05:55:06.519Z,0.00
2019-03-02T05:56:06.570Z,0.00
2019-03-02T05:57:06.624Z,0.00
2019-03-02T05:58:06.667Z,0.00
2019-03-02T05:59:06.753Z,0.00
2019-03-02T06:00:06.746Z,0.00
2019-03-02T06:01:06.775Z,0.00
2019-03-02T06:02:06.852Z,0.00
2019-03-02T06:03:06.898Z,0.00
2019-03-02T06:04:06.933Z,0.00
2019-03-02T06:05:06.991Z,0.00
2019-03-02T06:06:07.040Z,0.00
2019-03-02T06:07:07.080Z,0.00
2019-03-02T06:08:07.128Z,0.00
2019-03-02T06:09:08.413Z,0.00
2019-03-02T06:10:07.223Z,0.00
2019-03-02T06:11:07.245Z,0.00
2019-03-02T06:12:07.296Z,0.00
2019-03-02T06:13:07.350Z,0.00
2019-03-02T06:14:08.022Z,0.00
2019-03-02T06:15:07.897Z,0.00
2019-03-02T06:16:07.515Z,0.00
2019-03-02T06:17:07.529Z,0.00
2019-03-02T06:18:07.830Z,0.00
2019-03-02T06:19:07.639Z,0.00
2019-03-02T06:20:07.670Z,0.00
2019-03-02T06:21:10.753Z,0.00
2019-03-02T06:22:07.779Z,0.00
2019-03-02T06:23:07.822Z,0.00
2019-03-02T06:24:07.864Z,0.00
2019-03-02T06:25:07.918Z,0.00
2019-03-02T06:26:10.230Z,0.00
2019-03-02T06:27:10.805Z,0.00
2019-03-02T06:28:08.056Z,0.00
2019-03-02T06:29:08.101Z,0.00
2019-03-02T06:30:09.258Z,0.00
2019-03-02T06:31:08.196Z,0.00
2019-03-02T06:32:08.240Z,0.00
2019-03-02T06:33:08.635Z,0.00
2019-03-02T06:34:08.303Z,0.00
2019-03-02T06:35:08.350Z,0.00
2019-03-02T06:36:08.913Z,0.00
2019-03-02T06:37:08.491Z,0.00
2019-03-02T06:38:08.484Z,0.00
2019-03-02T06:39:09.141Z,0.00
2019-03-02T06:40:08.623Z,0.00
2019-03-02T06:41:08.650Z,0.00
2019-03-02T06:42:09.852Z,0.00
2019-03-02T06:43:08.746Z,0.00
2019-03-02T06:44:08.779Z,0.00
2019-03-02T06:45:10.011Z,0.00
2019-03-02T06:46:08.880Z,0.00
2019-03-02T06:47:08.908Z,0.00
2019-03-02T06:48:09.637Z,0.00
2019-03-02T06:49:09.011Z,0.00
2019-03-02T06:50:09.094Z,0.00
2019-03-02T06:51:11.227Z,0.00
2019-03-02T06:52:09.120Z,0.00
2019-03-02T06:53:09.185Z,0.00
2019-03-02T06:54:12.736Z,0.00
2019-03-02T06:55:09.278Z,0.00
2019-03-02T06:56:09.304Z,0.00
2019-03-02T06:57:10.687Z,0.00
2019-03-02T06:58:09.423Z,0.00
2019-03-02T06:59:09.462Z,0.00
2019-03-02T07:00:10.630Z,0.00
2019-03-02T07:01:09.548Z,0.00
2019-03-02T07:02:09.594Z,0.00
2019-03-02T07:03:10.084Z,0.00
2019-03-02T07:04:10.863Z,0.00
2019-03-02T07:05:09.737Z,0.00
2019-03-02T07:06:11.717Z,0.00
2019-03-02T07:07:09.811Z,0.00
2019-03-02T07:08:09.875Z,0.00
2019-03-02T07:09:10.685Z,0.00
2019-03-02T07:10:09.952Z,0.00
2019-03-02T07:11:09.985Z,0.00
2019-03-02T07:12:10.290Z,0.00
2019-03-02T07:13:10.102Z,0.00
2019-03-02T07:14:10.129Z,0.00
2019-03-02T07:15:10.183Z,0.00
2019-03-02T07:16:10.264Z,0.00
2019-03-02T07:17:10.278Z,0.00
2019-03-02T07:18:10.311Z,0.00
2019-03-02T07:19:13.415Z,0.00
2019-03-02T07:20:10.406Z,0.00
2019-03-02T07:21:10.466Z,0.00
2019-03-02T07:22:13.585Z,0.00
2019-03-02T07:23:10.582Z,0.00
2019-03-02T07:24:10.590Z,0.00
2019-03-02T07:25:10.640Z,0.00
2019-03-02T07:26:10.696Z,0.00
2019-03-02T07:27:10.734Z,0.00
2019-03-02T07:28:10.797Z,0.00
2019-03-02T07:29:13.816Z,0.00
2019-03-02T07:30:10.872Z,0.00
2019-03-02T07:31:10.907Z,0.00
2019-03-02T07:32:10.951Z,0.00
2019-03-02T07:33:11.021Z,0.00
2019-03-02T07:34:11.042Z,0.00
2019-03-02T07:35:11.116Z,0.00
2019-03-02T07:36:11.188Z,0.00
2019-03-02T07:37:11.196Z,0.00
2019-03-02T07:38:11.293Z,0.00
2019-03-02T07:39:11.275Z,0.00
2019-03-02T07:40:11.494Z,0.00
2019-03-02T07:41:11.378Z,0.00
2019-03-02T07:42:11.424Z,0.00
2019-03-02T07:43:11.466Z,0.00
2019-03-02T07:44:11.494Z,0.00
2019-03-02T07:45:11.702Z,0.00
2019-03-02T07:46:12.555Z,0.00
2019-03-02T07:47:11.637Z,0.00
2019-03-02T07:48:11.684Z,0.00
2019-03-02T07:49:13.089Z,0.00
2019-03-02T07:50:11.792Z,0.00
2019-03-02T07:51:11.840Z,0.00
2019-03-02T07:52:13.797Z,0.00
2019-03-02T07:53:11.939Z,0.00
2019-03-02T07:54:11.967Z,0.00
2019-03-02T07:55:14.795Z,0.00
2019-03-02T07:56:12.163Z,0.00
2019-03-02T07:57:12.085Z,0.00
2019-03-02T07:58:12.900Z,0.00
2019-03-02T07:59:12.197Z,0.00
2019-03-02T08:00:12.239Z,0.00
2019-03-02T08:01:12.921Z,0.00
2019-03-02T08:02:12.338Z,0.00
2019-03-02T08:03:12.365Z,0.00
2019-03-02T08:04:12.404Z,0.00
2019-03-02T08:05:14.508Z,0.00
2019-03-02T08:06:12.504Z,0.00
2019-03-02T08:07:12.558Z,0.00
2019-03-02T08:08:13.973Z,0.00
2019-03-02T08:09:12.632Z,0.00
2019-03-02T08:10:12.686Z,0.00
2019-03-02T08:11:13.536Z,0.00
2019-03-02T08:12:12.781Z,0.00
2019-03-02T08:13:12.811Z,0.00
2019-03-02T08:14:13.026Z,0.00
2019-03-02T08:15:12.913Z,0.00
2019-03-02T08:16:12.960Z,0.00
2019-03-02T08:17:13.543Z,0.00
2019-03-02T08:18:13.076Z,0.00
2019-03-02T08:19:13.087Z,0.00
2019-03-02T08:20:13.137Z,0.00
2019-03-02T08:21:13.158Z,0.00
2019-03-02T08:22:13.206Z,0.00
2019-03-02T08:23:13.266Z,0.00
2019-03-02T08:24:13.325Z,0.00
2019-03-02T08:25:13.378Z,0.00
2019-03-02T08:26:13.394Z,0.00
2019-03-02T08:27:13.497Z,0.00
2019-03-02T08:28:13.514Z,0.00
2019-03-02T08:29:13.543Z,0.00
2019-03-02T08:30:13.595Z,0.00
2019-03-02T08:31:13.639Z,0.00
2019-03-02T08:32:13.695Z,0.00
2019-03-02T08:33:13.745Z,0.00
2019-03-02T08:34:13.768Z,0.00
2019-03-02T08:35:13.855Z,0.00
2019-03-02T08:36:16.919Z,0.00
2019-03-02T08:37:13.922Z,0.00
2019-03-02T08:38:13.929Z,0.00
2019-03-02T08:39:14.712Z,0.00
2019-03-02T08:40:14.019Z,0.00
2019-03-02T08:41:14.140Z,0.00
2019-03-02T08:42:14.125Z,4.00
2019-03-02T08:43:16.459Z,4.00
2019-03-02T08:44:15.579Z,4.00
2019-03-02T08:45:14.261Z,8.00
2019-03-02T08:46:14.304Z,8.00
2019-03-02T08:47:14.389Z,8.00
2019-03-02T08:48:14.471Z,16.00
2019-03-02T08:49:14.466Z,20.00
2019-03-02T08:50:17.635Z,24.00
2019-03-02T08:51:14.540Z,32.00
2019-03-02T08:52:14.601Z,36.00
2019-03-02T08:53:14.632Z,44.00
2019-03-02T08:54:17.850Z,52.00
2019-03-02T08:55:14.716Z,68.00
2019-03-02T08:56:14.790Z,80.00
2019-03-02T08:57:14.815Z,100.00
2019-03-02T08:58:14.853Z,120.00
2019-03-02T08:59:14.899Z,140.00
2019-03-02T09:00:14.967Z,164.00
2019-03-02T09:01:15.419Z,188.00
2019-03-02T09:02:15.054Z,208.00
2019-03-02T09:03:15.113Z,232.00
2019-03-02T09:04:15.209Z,268.00
2019-03-02T09:05:15.200Z,312.00
2019-03-02T09:06:15.209Z,360.00
2019-03-02T09:07:15.254Z,416.00
2019-03-02T09:08:15.320Z,476.00
2019-03-02T09:09:15.390Z,536.00
2019-03-02T09:10:15.401Z,580.00
2019-03-02T09:11:15.458Z,616.00
2019-03-02T09:12:17.965Z,652.00
2019-03-02T09:13:15.551Z,684.00
2019-03-02T09:14:15.593Z,720.00
2019-03-02T09:15:15.648Z,764.00
2019-03-02T09:16:15.724Z,816.00
2019-03-02T09:17:17.735Z,880.00
2019-03-02T09:18:15.761Z,952.00
2019-03-02T09:19:16.850Z,1028.00
2019-03-02T09:20:15.901Z,1116.00
2019-03-02T09:21:15.912Z,1220.00
2019-03-02T09:22:15.965Z,1316.00
2019-03-02T09:23:15.987Z,1404.00
2019-03-02T09:24:16.038Z,1492.00
2019-03-02T09:25:16.212Z,1560.00
2019-03-02T09:26:16.122Z,1604.00
2019-03-02T09:27:16.187Z,1688.00
2019-03-02T09:28:16.280Z,1848.00
2019-03-02T09:29:16.311Z,2068.00
2019-03-02T09:30:16.340Z,2292.00
2019-03-02T09:31:25.662Z,2448.00
2019-03-02T09:32:16.401Z,2612.00
2019-03-02T09:33:16.469Z,2824.00
2019-03-02T09:34:16.529Z,3112.00
2019-03-02T09:35:17.269Z,3432.00
2019-03-02T09:36:16.593Z,3828.00
2019-03-02T09:37:16.647Z,4268.00
2019-03-02T09:38:16.990Z,4624.00
2019-03-02T09:39:16.780Z,4788.00
2019-03-02T09:40:16.787Z,4836.00
2019-03-02T09:41:16.839Z,4872.00
2019-03-02T09:42:16.880Z,4940.00
2019-03-02T09:43:17.216Z,5000.00
2019-03-02T09:44:16.961Z,5264.00
2019-03-02T09:45:17.057Z,5808.00
2019-03-02T09:46:17.053Z,6500.00
2019-03-02T09:47:17.093Z,7056.00
2019-03-02T09:48:17.141Z,8236.00
2019-03-02T09:49:17.182Z,9856.00
2019-03-02T09:50:17.253Z,9744.00
2019-03-02T09:51:17.295Z,10924.00
2019-03-02T09:52:17.342Z,11204.00
2019-03-02T09:53:17.382Z,10452.00
2019-03-02T09:54:17.441Z,10284.00
2019-03-02T09:55:18.588Z,9760.00
2019-03-02T09:56:17.522Z,8936.00
2019-03-02T09:57:17.553Z,8752.00
2019-03-02T09:58:20.194Z,9856.00
2019-03-02T09:59:17.682Z,10320.00
2019-03-02T10:00:19.222Z,9396.00
2019-03-02T10:01:17.910Z,11080.00
2019-03-02T10:02:17.812Z,12948.00
2019-03-02T10:03:17.868Z,11076.00
2019-03-02T10:04:17.894Z,9444.00
2019-03-02T10:05:17.942Z,8528.00
2019-03-02T10:06:18.006Z,7704.00
2019-03-02T10:07:18.035Z,8272.00
2019-03-02T10:08:18.076Z,8904.00
2019-03-02T10:09:18.145Z,10224.00
2019-03-02T10:10:18.173Z,10844.00
2019-03-02T10:11:19.490Z,11916.00
2019-03-02T10:12:18.274Z,12928.00
2019-03-02T10:13:18.334Z,12484.00
2019-03-02T10:14:20.708Z,13880.00
2019-03-02T10:15:19.441Z,12832.00
2019-03-02T10:16:18.473Z,12332.00
2019-03-02T10:17:18.506Z,10896.00
2019-03-02T10:18:18.566Z,8976.00
2019-03-02T10:19:18.642Z,7924.00
2019-03-02T10:20:18.671Z,7824.00
2019-03-02T10:21:18.706Z,7392.00
2019-03-02T10:22:19.692Z,6868.00
2019-03-02T10:23:18.806Z,6920.00
2019-03-02T10:24:18.839Z,6980.00
2019-03-02T10:25:18.878Z,7556.00
2019-03-02T10:26:18.947Z,8720.00
2019-03-02T10:27:21.075Z,8888.00
2019-03-02T10:28:19.033Z,8732.00
2019-03-02T10:29:19.097Z,7748.00
2019-03-02T10:30:21.959Z,7088.00
2019-03-02T10:31:19.227Z,6600.00
2019-03-02T10:32:19.637Z,6596.00
2019-03-02T10:33:19.295Z,6108.00
2019-03-02T10:34:19.362Z,6304.00
2019-03-02T10:35:19.389Z,6544.00
2019-03-02T10:36:19.406Z,7280.00
2019-03-02T10:37:19.479Z,8368.00
2019-03-02T10:38:20.097Z,8768.00
2019-03-02T10:39:19.602Z,8936.00
2019-03-02T10:40:19.620Z,8236.00
2019-03-02T10:41:20.421Z,7816.00
2019-03-02T10:42:19.738Z,7924.00
2019-03-02T10:43:19.751Z,8088.00
2019-03-02T10:44:21.265Z,8108.00
2019-03-02T10:45:19.914Z,8168.00
2019-03-02T10:46:19.893Z,8788.00
2019-03-02T10:47:19.945Z,8604.00
2019-03-02T10:48:20.014Z,7996.00
2019-03-02T10:49:20.037Z,7532.00
2019-03-02T10:50:23.433Z,7360.00
2019-03-02T10:51:20.151Z,6760.00
2019-03-02T10:52:20.198Z,5948.00
2019-03-02T10:53:20.766Z,5724.00
2019-03-02T10:54:20.283Z,5836.00
2019-03-02T10:55:20.390Z,6732.00
2019-03-02T10:56:20.951Z,9476.00
2019-03-02T10:57:20.467Z,11832.00
2019-03-02T10:58:20.533Z,11724.00
2019-03-02T10:59:20.505Z,9944.00
2019-03-02T11:00:20.586Z,7732.00
2019-03-02T11:01:20.612Z,5864.00
2019-03-02T11:02:21.052Z,4756.00
2019-03-02T11:03:20.742Z,4644.00
2019-03-02T11:04:20.771Z,5068.00
2019-03-02T11:05:21.055Z,5788.00
2019-03-02T11:06:20.870Z,6776.00
2019-03-02T11:07:20.906Z,7000.00
2019-03-02T11:08:21.841Z,7336.00
2019-03-02T11:09:22.586Z,8512.00
2019-03-02T11:10:21.042Z,9400.00
2019-03-02T11:11:21.102Z,9064.00
2019-03-02T11:12:21.182Z,8784.00
2019-03-02T11:13:21.238Z,9124.00
2019-03-02T11:14:21.205Z,9336.00
2019-03-02T11:15:21.301Z,8880.00
2019-03-02T11:16:21.335Z,8020.00
2019-03-02T11:17:23.132Z,8872.00
2019-03-02T11:18:21.465Z,9636.00
2019-03-02T11:19:21.515Z,8760.00
2019-03-02T11:20:24.314Z,7664.00
2019-03-02T11:21:21.561Z,7072.00
2019-03-02T11:22:21.608Z,7548.00
2019-03-02T11:23:23.147Z,8812.00
2019-03-02T11:24:21.744Z,11580.00
2019-03-02T11:25:21.805Z,15308.00
2019-03-02T11:26:21.828Z,20032.00
2019-03-02T11:27:21.879Z,25376.00
2019-03-02T11:28:21.919Z,30688.00
2019-03-02T11:29:22.141Z,46976.00
2019-03-02T11:30:22.746Z,33920.00
2019-03-02T11:31:22.086Z,27104.00
2019-03-02T11:32:22.104Z,24736.00
2019-03-02T11:33:22.143Z,24192.00
2019-03-02T11:34:22.203Z,24736.00
2019-03-02T11:35:22.252Z,24704.00
2019-03-02T11:36:23.819Z,27648.00
2019-03-02T11:37:25.538Z,26560.00
2019-03-02T11:38:22.447Z,24224.00
2019-03-02T11:39:22.453Z,24096.00
2019-03-02T11:40:25.751Z,25216.00
2019-03-02T11:41:22.568Z,25568.00
2019-03-02T11:42:22.601Z,25536.00
2019-03-02T11:43:22.641Z,23104.00
2019-03-02T11:44:22.705Z,22080.00
2019-03-02T11:45:22.742Z,21888.00
2019-03-02T11:46:22.776Z,19008.00
2019-03-02T11:47:22.839Z,18880.00
2019-03-02T11:48:22.910Z,19456.00
2019-03-02T11:49:29.921Z,20960.00
2019-03-02T11:50:23.003Z,21536.00
2019-03-02T11:51:24.045Z,21376.00
2019-03-02T11:52:23.099Z,23552.00
2019-03-02T11:53:24.114Z,26976.00
2019-03-02T11:54:25.084Z,26944.00
2019-03-02T11:55:23.250Z,27456.00
2019-03-02T11:56:26.939Z,25440.00
2019-03-02T11:57:23.362Z,20320.00
2019-03-02T11:58:23.406Z,18336.00
2019-03-02T11:59:23.457Z,21184.00
2019-03-02T12:00:23.555Z,28192.00
2019-03-02T12:01:23.545Z,32096.00
2019-03-02T12:02:24.115Z,39936.00
2019-03-02T12:03:23.633Z,49824.00
2019-03-02T12:04:23.750Z,64160.00
2019-03-02T12:05:24.971Z,73888.00
2019-03-02T12:06:23.792Z,47872.00
2019-03-02T12:07:23.848Z,67872.00
2019-03-02T12:08:23.925Z,39872.00
2019-03-02T12:09:23.957Z,29216.00
2019-03-02T12:10:24.010Z,27232.00
2019-03-02T12:11:24.049Z,25536.00
2019-03-02T12:12:24.133Z,25440.00
2019-03-02T12:13:27.703Z,24288.00
2019-03-02T12:14:24.223Z,29856.00
2019-03-02T12:15:25.008Z,29152.00
2019-03-02T12:16:26.383Z,29312.00
2019-03-02T12:17:24.377Z,26624.00
2019-03-02T12:18:24.417Z,21408.00
2019-03-02T12:19:26.223Z,19328.00
2019-03-02T12:20:24.585Z,20480.00
2019-03-02T12:21:24.599Z,21888.00
2019-03-02T12:22:24.625Z,18976.00
2019-03-02T12:23:24.837Z,90720.00
2019-03-02T12:24:24.727Z,94656.00
2019-03-02T12:25:24.798Z,59520.00
2019-03-02T12:26:26.611Z,24672.00
2019-03-02T12:27:24.888Z,28672.00
2019-03-02T12:28:24.946Z,27776.00
2019-03-02T12:29:24.997Z,30400.00
2019-03-02T12:30:26.125Z,33472.00
2019-03-02T12:31:28.139Z,35264.00
2019-03-02T12:32:25.156Z,25696.00
2019-03-02T12:33:25.227Z,21504.00
2019-03-02T12:34:25.307Z,19264.00
2019-03-02T12:35:25.315Z,16196.00
2019-03-02T12:36:25.368Z,16884.00
2019-03-02T12:37:28.501Z,15744.00
2019-03-02T12:38:25.470Z,11648.00
2019-03-02T12:39:25.529Z,11576.00
2019-03-02T12:40:25.559Z,14820.00
2019-03-02T12:41:25.660Z,20576.00
2019-03-02T12:42:26.699Z,18848.00
2019-03-02T12:43:25.736Z,16296.00
2019-03-02T12:44:25.792Z,13900.00
2019-03-02T12:45:25.827Z,11240.00
2019-03-02T12:46:25.925Z,10688.00
2019-03-02T12:47:25.966Z,9572.00
2019-03-02T12:48:25.982Z,8036.00
2019-03-02T12:49:26.049Z,11104.00
2019-03-02T12:50:28.104Z,16516.00
2019-03-02T12:51:26.129Z,22176.00
2019-03-02T12:52:28.246Z,29472.00